sensor_id;sensor_type;location;lat;lon;timestamp;P1;durP1;ratioP1;P2;durP2;ratioP2
73940;SDS011;62294;48.554;10.202;2022-09-01T00:01:38;11.23;;;8.20;;
73940;SDS011;62294;48.554;10.202;2022-09-01T00:04:09;15.70;;;9.90;;
73940;SDS011;62294;48.554;10.202;2022-09-01T00:06:38;12.50;;;9.40;;
73940;SDS011;62294;48.554;10.202;2022-09-01T00:09:07;11.68;;;9.15;;
73940;SDS011;62294;48.554;10.202;2022-09-01T00:11:36;12.35;;;9.38;;
73940;SDS011;62294;48.554;10.202;2022-09-01T00:14:03;13.02;;;9.20;;
73940;SDS011;62294;48.554;10.202;2022-09-01T00:16:52;10.20;;;7.93;;
73940;SDS011;62294;48.554;10.202;2022-09-01T00:19:20;11.30;;;7.95;;
73940;SDS011;62294;48.554;10.202;2022-09-01T00:21:47;10.18;;;7.90;;
73940;SDS011;62294;48.554;10.202;2022-09-01T00:24:15;12.68;;;8.10;;
73940;SDS011;62294;48.554;10.202;2022-09-01T00:26:42;13.18;;;8.52;;
73940;SDS011;62294;48.554;10.202;2022-09-01T00:29:10;11.70;;;8.38;;
73940;SDS011;62294;48.554;10.202;2022-09-01T00:31:38;15.30;;;9.50;;
73940;SDS011;62294;48.554;10.202;2022-09-01T00:34:05;13.00;;;9.43;;
73940;SDS011;62294;48.554;10.202;2022-09-01T00:36:31;13.77;;;9.55;;
73940;SDS011;62294;48.554;10.202;2022-09-01T00:38:58;13.18;;;9.10;;
73940;SDS011;62294;48.554;10.202;2022-09-01T00:41:26;13.30;;;9.20;;
73940;SDS011;62294;48.554;10.202;2022-09-01T00:43:56;12.50;;;9.43;;
73940;SDS011;62294;48.554;10.202;2022-09-01T00:46:26;12.20;;;8.35;;
73940;SDS011;62294;48.554;10.202;2022-09-01T00:48:57;13.02;;;8.57;;
73940;SDS011;62294;48.554;10.202;2022-09-01T00:51:27;12.93;;;9.07;;
73940;SDS011;62294;48.554;10.202;2022-09-01T00:53:55;14.93;;;10.00;;
73940;SDS011;62294;48.554;10.202;2022-09-01T00:56:22;15.80;;;10.98;;
73940;SDS011;62294;48.554;10.202;2022-09-01T00:58:49;17.10;;;11.13;;
73940;SDS011;62294;48.554;10.202;2022-09-01T01:01:17;16.98;;;10.57;;
73940;SDS011;62294;48.554;10.202;2022-09-01T01:03:45;16.60;;;10.70;;
73940;SDS011;62294;48.554;10.202;2022-09-01T01:06:12;15.73;;;10.65;;
73940;SDS011;62294;48.554;10.202;2022-09-01T01:08:43;15.93;;;10.57;;
73940;SDS011;62294;48.554;10.202;2022-09-01T01:11:22;15.73;;;10.43;;
73940;SDS011;62294;48.554;10.202;2022-09-01T01:14:01;18.20;;;11.10;;
73940;SDS011;62294;48.554;10.202;2022-09-01T01:16:42;16.98;;;11.25;;
73940;SDS011;62294;48.554;10.202;2022-09-01T01:22:19;15.38;;;10.85;;
73940;SDS011;62294;48.554;10.202;2022-09-01T01:25:11;17.27;;;11.30;;
73940;SDS011;62294;48.554;10.202;2022-09-01T01:27:38;17.92;;;11.32;;
73940;SDS011;62294;48.554;10.202;2022-09-01T01:30:09;17.13;;;11.10;;
73940;SDS011;62294;48.554;10.202;2022-09-01T01:32:38;15.82;;;11.60;;
73940;SDS011;62294;48.554;10.202;2022-09-01T01:35:09;17.45;;;11.25;;
73940;SDS011;62294;48.554;10.202;2022-09-01T01:37:43;15.15;;;10.63;;
73940;SDS011;62294;48.554;10.202;2022-09-01T01:40:12;16.95;;;10.90;;
73940;SDS011;62294;48.554;10.202;2022-09-01T01:42:45;15.93;;;10.45;;
73940;SDS011;62294;48.554;10.202;2022-09-01T01:45:13;14.38;;;10.52;;
73940;SDS011;62294;48.554;10.202;2022-09-01T01:47:46;15.85;;;10.43;;
73940;SDS011;62294;48.554;10.202;2022-09-01T01:50:25;14.70;;;10.07;;
73940;SDS011;62294;48.554;10.202;2022-09-01T01:52:56;15.90;;;10.93;;
73940;SDS011;62294;48.554;10.202;2022-09-01T01:55:25;14.05;;;10.82;;
73940;SDS011;62294;48.554;10.202;2022-09-01T01:57:54;13.35;;;10.00;;
73940;SDS011;62294;48.554;10.202;2022-09-01T02:00:23;14.82;;;10.63;;
73940;SDS011;62294;48.554;10.202;2022-09-01T02:02:55;15.63;;;9.70;;
73940;SDS011;62294;48.554;10.202;2022-09-01T02:05:25;13.23;;;9.80;;
73940;SDS011;62294;48.554;10.202;2022-09-01T02:07:54;13.90;;;9.80;;
73940;SDS011;62294;48.554;10.202;2022-09-01T02:10:26;13.85;;;9.70;;
73940;SDS011;62294;48.554;10.202;2022-09-01T02:12:56;14.57;;;10.15;;
73940;SDS011;62294;48.554;10.202;2022-09-01T02:15:35;13.02;;;9.35;;
73940;SDS011;62294;48.554;10.202;2022-09-01T02:18:10;15.07;;;10.25;;
73940;SDS011;62294;48.554;10.202;2022-09-01T02:20:39;13.30;;;9.65;;
73940;SDS011;62294;48.554;10.202;2022-09-01T02:23:07;14.38;;;9.82;;
73940;SDS011;62294;48.554;10.202;2022-09-01T02:25:38;16.00;;;9.82;;
73940;SDS011;62294;48.554;10.202;2022-09-01T02:28:30;13.60;;;9.50;;
73940;SDS011;62294;48.554;10.202;2022-09-01T02:31:02;11.68;;;8.40;;
73940;SDS011;62294;48.554;10.202;2022-09-01T02:33:30;13.02;;;9.00;;
73940;SDS011;62294;48.554;10.202;2022-09-01T02:36:00;13.85;;;9.05;;
73940;SDS011;62294;48.554;10.202;2022-09-01T02:38:28;13.10;;;9.00;;
73940;SDS011;62294;48.554;10.202;2022-09-01T02:40:55;13.35;;;10.27;;
73940;SDS011;62294;48.554;10.202;2022-09-01T02:43:24;14.57;;;9.38;;
73940;SDS011;62294;48.554;10.202;2022-09-01T02:45:54;13.18;;;9.57;;
73940;SDS011;62294;48.554;10.202;2022-09-01T02:48:43;14.35;;;9.90;;
73940;SDS011;62294;48.554;10.202;2022-09-01T02:51:13;13.25;;;9.63;;
73940;SDS011;62294;48.554;10.202;2022-09-01T02:53:43;12.65;;;9.30;;
73940;SDS011;62294;48.554;10.202;2022-09-01T02:56:13;14.10;;;9.15;;
73940;SDS011;62294;48.554;10.202;2022-09-01T02:58:42;14.27;;;9.85;;
73940;SDS011;62294;48.554;10.202;2022-09-01T03:01:16;12.93;;;9.57;;
73940;SDS011;62294;48.554;10.202;2022-09-01T03:03:48;13.10;;;9.18;;
73940;SDS011;62294;48.554;10.202;2022-09-01T03:06:17;13.07;;;9.35;;
73940;SDS011;62294;48.554;10.202;2022-09-01T03:08:46;11.55;;;9.20;;
73940;SDS011;62294;48.554;10.202;2022-09-01T03:11:13;11.38;;;8.75;;
73940;SDS011;62294;48.554;10.202;2022-09-01T03:13:40;12.40;;;8.63;;
73940;SDS011;62294;48.554;10.202;2022-09-01T03:16:08;12.38;;;8.15;;
73940;SDS011;62294;48.554;10.202;2022-09-01T03:18:35;12.02;;;8.63;;
73940;SDS011;62294;48.554;10.202;2022-09-01T03:21:05;12.13;;;8.43;;
73940;SDS011;62294;48.554;10.202;2022-09-01T03:23:33;12.73;;;9.15;;
73940;SDS011;62294;48.554;10.202;2022-09-01T03:26:00;13.15;;;8.95;;
73940;SDS011;62294;48.554;10.202;2022-09-01T03:28:27;11.80;;;9.43;;
73940;SDS011;62294;48.554;10.202;2022-09-01T03:30:55;12.70;;;8.68;;
73940;SDS011;62294;48.554;10.202;2022-09-01T03:33:24;13.30;;;9.55;;
73940;SDS011;62294;48.554;10.202;2022-09-01T03:35:53;12.02;;;9.23;;
73940;SDS011;62294;48.554;10.202;2022-09-01T03:38:20;13.57;;;9.15;;
73940;SDS011;62294;48.554;10.202;2022-09-01T03:40:48;13.00;;;9.38;;
73940;SDS011;62294;48.554;10.202;2022-09-01T03:43:16;13.48;;;9.18;;
73940;SDS011;62294;48.554;10.202;2022-09-01T03:45:44;12.15;;;8.32;;
73940;SDS011;62294;48.554;10.202;2022-09-01T03:48:11;14.95;;;9.98;;
73940;SDS011;62294;48.554;10.202;2022-09-01T03:50:43;13.70;;;9.25;;
73940;SDS011;62294;48.554;10.202;2022-09-01T03:53:12;15.80;;;9.60;;
73940;SDS011;62294;48.554;10.202;2022-09-01T03:55:43;13.75;;;9.43;;
73940;SDS011;62294;48.554;10.202;2022-09-01T03:58:12;13.95;;;9.25;;
73940;SDS011;62294;48.554;10.202;2022-09-01T04:00:47;13.85;;;8.93;;
73940;SDS011;62294;48.554;10.202;2022-09-01T04:03:24;12.00;;;8.98;;
73940;SDS011;62294;48.554;10.202;2022-09-01T04:05:54;14.45;;;8.98;;
73940;SDS011;62294;48.554;10.202;2022-09-01T04:08:22;12.82;;;9.35;;
73940;SDS011;62294;48.554;10.202;2022-09-01T04:10:59;15.65;;;9.77;;
73940;SDS011;62294;48.554;10.202;2022-09-01T04:13:36;13.82;;;9.88;;
73940;SDS011;62294;48.554;10.202;2022-09-01T04:16:04;14.40;;;9.50;;
73940;SDS011;62294;48.554;10.202;2022-09-01T04:18:57;14.45;;;10.02;;
73940;SDS011;62294;48.554;10.202;2022-09-01T04:21:25;13.65;;;9.73;;
73940;SDS011;62294;48.554;10.202;2022-09-01T04:23:52;13.10;;;9.32;;
73940;SDS011;62294;48.554;10.202;2022-09-01T04:26:18;14.90;;;9.45;;
73940;SDS011;62294;48.554;10.202;2022-09-01T04:28:49;13.43;;;8.88;;
73940;SDS011;62294;48.554;10.202;2022-09-01T04:31:18;14.90;;;9.30;;
73940;SDS011;62294;48.554;10.202;2022-09-01T04:33:46;12.77;;;9.35;;
73940;SDS011;62294;48.554;10.202;2022-09-01T04:36:22;11.90;;;9.07;;
73940;SDS011;62294;48.554;10.202;2022-09-01T04:38:56;13.05;;;9.48;;
73940;SDS011;62294;48.554;10.202;2022-09-01T04:41:27;14.30;;;9.90;;
73940;SDS011;62294;48.554;10.202;2022-09-01T04:43:57;13.02;;;9.73;;
73940;SDS011;62294;48.554;10.202;2022-09-01T04:46:31;13.60;;;9.45;;
73940;SDS011;62294;48.554;10.202;2022-09-01T04:49:01;13.25;;;9.50;;
73940;SDS011;62294;48.554;10.202;2022-09-01T04:51:38;12.23;;;9.43;;
73940;SDS011;62294;48.554;10.202;2022-09-01T04:54:06;14.10;;;9.65;;
73940;SDS011;62294;48.554;10.202;2022-09-01T04:56:40;14.40;;;10.27;;
73940;SDS011;62294;48.554;10.202;2022-09-01T04:59:09;14.07;;;9.77;;
73940;SDS011;62294;48.554;10.202;2022-09-01T05:01:37;14.05;;;9.90;;
73940;SDS011;62294;48.554;10.202;2022-09-01T05:04:21;12.68;;;9.85;;
73940;SDS011;62294;48.554;10.202;2022-09-01T05:06:50;15.38;;;10.60;;
73940;SDS011;62294;48.554;10.202;2022-09-01T05:09:36;12.68;;;9.52;;
73940;SDS011;62294;48.554;10.202;2022-09-01T05:12:03;14.60;;;10.02;;
73940;SDS011;62294;48.554;10.202;2022-09-01T05:14:42;13.88;;;9.77;;
73940;SDS011;62294;48.554;10.202;2022-09-01T05:17:13;15.50;;;10.18;;
73940;SDS011;62294;48.554;10.202;2022-09-01T05:19:43;13.80;;;9.23;;
73940;SDS011;62294;48.554;10.202;2022-09-01T05:22:13;12.40;;;9.38;;
73940;SDS011;62294;48.554;10.202;2022-09-01T05:24:40;13.07;;;9.50;;
73940;SDS011;62294;48.554;10.202;2022-09-01T05:27:07;17.13;;;10.15;;
73940;SDS011;62294;48.554;10.202;2022-09-01T05:29:35;13.65;;;9.55;;
73940;SDS011;62294;48.554;10.202;2022-09-01T05:32:03;13.25;;;9.95;;
73940;SDS011;62294;48.554;10.202;2022-09-01T05:34:36;13.77;;;9.85;;
73940;SDS011;62294;48.554;10.202;2022-09-01T05:37:05;14.38;;;9.30;;
73940;SDS011;62294;48.554;10.202;2022-09-01T05:39:34;13.50;;;9.73;;
73940;SDS011;62294;48.554;10.202;2022-09-01T05:42:03;12.10;;;8.85;;
73940;SDS011;62294;48.554;10.202;2022-09-01T05:44:37;13.65;;;9.25;;
73940;SDS011;62294;48.554;10.202;2022-09-01T05:47:09;14.27;;;9.85;;
73940;SDS011;62294;48.554;10.202;2022-09-01T05:49:46;12.80;;;9.55;;
73940;SDS011;62294;48.554;10.202;2022-09-01T05:52:14;12.88;;;9.73;;
73940;SDS011;62294;48.554;10.202;2022-09-01T05:54:41;14.65;;;10.38;;
73940;SDS011;62294;48.554;10.202;2022-09-01T05:57:08;13.93;;;9.90;;
73940;SDS011;62294;48.554;10.202;2022-09-01T05:59:54;13.20;;;9.52;;
73940;SDS011;62294;48.554;10.202;2022-09-01T06:02:22;14.52;;;9.65;;
73940;SDS011;62294;48.554;10.202;2022-09-01T06:04:51;13.00;;;9.45;;
73940;SDS011;62294;48.554;10.202;2022-09-01T06:07:22;12.35;;;9.13;;
73940;SDS011;62294;48.554;10.202;2022-09-01T06:09:53;12.75;;;9.68;;
73940;SDS011;62294;48.554;10.202;2022-09-01T06:12:19;13.20;;;9.65;;
73940;SDS011;62294;48.554;10.202;2022-09-01T06:14:50;13.13;;;9.65;;
73940;SDS011;62294;48.554;10.202;2022-09-01T06:17:21;13.18;;;10.00;;
73940;SDS011;62294;48.554;10.202;2022-09-01T06:19:54;14.70;;;9.82;;
73940;SDS011;62294;48.554;10.202;2022-09-01T06:22:22;13.40;;;9.35;;
73940;SDS011;62294;48.554;10.202;2022-09-01T06:24:52;12.30;;;9.18;;
73940;SDS011;62294;48.554;10.202;2022-09-01T06:27:26;12.48;;;9.30;;
73940;SDS011;62294;48.554;10.202;2022-09-01T06:29:53;12.73;;;9.60;;
73940;SDS011;62294;48.554;10.202;2022-09-01T06:32:20;13.73;;;8.93;;
73940;SDS011;62294;48.554;10.202;2022-09-01T06:34:46;13.98;;;10.02;;
73940;SDS011;62294;48.554;10.202;2022-09-01T06:37:16;13.10;;;9.80;;
73940;SDS011;62294;48.554;10.202;2022-09-01T06:39:47;13.60;;;9.52;;
73940;SDS011;62294;48.554;10.202;2022-09-01T06:42:15;15.18;;;9.38;;
73940;SDS011;62294;48.554;10.202;2022-09-01T06:44:42;16.63;;;10.73;;
73940;SDS011;62294;48.554;10.202;2022-09-01T06:47:09;12.75;;;9.13;;
73940;SDS011;62294;48.554;10.202;2022-09-01T06:49:35;14.68;;;10.50;;
73940;SDS011;62294;48.554;10.202;2022-09-01T06:52:05;14.43;;;8.43;;
73940;SDS011;62294;48.554;10.202;2022-09-01T06:54:32;12.55;;;8.73;;
73940;SDS011;62294;48.554;10.202;2022-09-01T06:57:01;13.23;;;9.30;;
73940;SDS011;62294;48.554;10.202;2022-09-01T06:59:48;12.35;;;8.10;;
73940;SDS011;62294;48.554;10.202;2022-09-01T07:02:18;11.18;;;8.50;;
73940;SDS011;62294;48.554;10.202;2022-09-01T07:04:49;11.50;;;7.70;;
73940;SDS011;62294;48.554;10.202;2022-09-01T07:07:17;13.73;;;9.85;;
73940;SDS011;62294;48.554;10.202;2022-09-01T07:10:04;12.07;;;7.72;;
73940;SDS011;62294;48.554;10.202;2022-09-01T07:12:47;12.95;;;8.88;;
73940;SDS011;62294;48.554;10.202;2022-09-01T07:15:31;12.52;;;8.50;;
73940;SDS011;62294;48.554;10.202;2022-09-01T07:18:19;12.88;;;9.10;;
73940;SDS011;62294;48.554;10.202;2022-09-01T07:20:50;13.18;;;8.25;;
73940;SDS011;62294;48.554;10.202;2022-09-01T07:23:38;12.13;;;8.32;;
73940;SDS011;62294;48.554;10.202;2022-09-01T07:26:25;12.32;;;8.88;;
73940;SDS011;62294;48.554;10.202;2022-09-01T07:28:52;12.73;;;9.07;;
73940;SDS011;62294;48.554;10.202;2022-09-01T07:31:31;11.27;;;7.75;;
73940;SDS011;62294;48.554;10.202;2022-09-01T07:37:05;11.50;;;7.97;;
73940;SDS011;62294;48.554;10.202;2022-09-01T07:39:52;10.98;;;7.00;;
73940;SDS011;62294;48.554;10.202;2022-09-01T07:42:20;11.65;;;8.35;;
73940;SDS011;62294;48.554;10.202;2022-09-01T07:45:08;12.10;;;8.50;;
73940;SDS011;62294;48.554;10.202;2022-09-01T07:47:52;12.27;;;8.75;;
73940;SDS011;62294;48.554;10.202;2022-09-01T07:50:20;11.43;;;8.50;;
73940;SDS011;62294;48.554;10.202;2022-09-01T07:55:34;10.98;;;7.93;;
73940;SDS011;62294;48.554;10.202;2022-09-01T07:58:00;12.13;;;8.00;;
73940;SDS011;62294;48.554;10.202;2022-09-01T08:00:26;12.52;;;7.75;;
73940;SDS011;62294;48.554;10.202;2022-09-01T08:02:57;11.88;;;8.60;;
73940;SDS011;62294;48.554;10.202;2022-09-01T08:05:23;12.05;;;8.23;;
73940;SDS011;62294;48.554;10.202;2022-09-01T08:07:52;11.93;;;7.43;;
73940;SDS011;62294;48.554;10.202;2022-09-01T08:10:19;11.60;;;8.50;;
73940;SDS011;62294;48.554;10.202;2022-09-01T08:12:46;9.27;;;7.28;;
73940;SDS011;62294;48.554;10.202;2022-09-01T08:15:21;9.85;;;7.05;;
73940;SDS011;62294;48.554;10.202;2022-09-01T08:18:06;12.75;;;7.03;;
73940;SDS011;62294;48.554;10.202;2022-09-01T08:20:40;11.43;;;8.40;;
73940;SDS011;62294;48.554;10.202;2022-09-01T08:23:11;11.40;;;7.85;;
73940;SDS011;62294;48.554;10.202;2022-09-01T08:25:40;12.13;;;8.43;;
73940;SDS011;62294;48.554;10.202;2022-09-01T08:28:09;11.70;;;8.95;;
73940;SDS011;62294;48.554;10.202;2022-09-01T08:30:38;11.32;;;7.53;;
73940;SDS011;62294;48.554;10.202;2022-09-01T08:33:14;11.18;;;7.32;;
73940;SDS011;62294;48.554;10.202;2022-09-01T08:35:44;9.73;;;7.20;;
73940;SDS011;62294;48.554;10.202;2022-09-01T08:38:12;10.00;;;7.50;;
73940;SDS011;62294;48.554;10.202;2022-09-01T08:40:40;10.80;;;7.18;;
73940;SDS011;62294;48.554;10.202;2022-09-01T08:43:15;9.73;;;6.72;;
73940;SDS011;62294;48.554;10.202;2022-09-01T08:45:51;8.07;;;5.97;;
73940;SDS011;62294;48.554;10.202;2022-09-01T08:48:22;10.15;;;6.20;;
73940;SDS011;62294;48.554;10.202;2022-09-01T08:51:39;9.98;;;6.75;;
73940;SDS011;62294;48.554;10.202;2022-09-01T08:57:16;10.82;;;7.30;;
73940;SDS011;62294;48.554;10.202;2022-09-01T08:59:46;8.23;;;6.25;;
73940;SDS011;62294;48.554;10.202;2022-09-01T09:05:21;7.50;;;5.50;;
73940;SDS011;62294;48.554;10.202;2022-09-01T09:13:09;8.38;;;5.30;;
73940;SDS011;62294;48.554;10.202;2022-09-01T09:18:49;9.15;;;6.15;;
73940;SDS011;62294;48.554;10.202;2022-09-01T09:21:40;11.13;;;6.15;;
73940;SDS011;62294;48.554;10.202;2022-09-01T09:24:12;9.32;;;6.43;;
73940;SDS011;62294;48.554;10.202;2022-09-01T09:26:50;13.93;;;7.05;;
73940;SDS011;62294;48.554;10.202;2022-09-01T09:29:18;8.60;;;6.40;;
73940;SDS011;62294;48.554;10.202;2022-09-01T09:31:48;8.13;;;6.05;;
73940;SDS011;62294;48.554;10.202;2022-09-01T09:34:33;10.55;;;6.43;;
73940;SDS011;62294;48.554;10.202;2022-09-01T09:40:11;9.93;;;6.13;;
73940;SDS011;62294;48.554;10.202;2022-09-01T09:43:03;7.25;;;4.60;;
73940;SDS011;62294;48.554;10.202;2022-09-01T09:48:29;10.50;;;7.00;;
73940;SDS011;62294;48.554;10.202;2022-09-01T09:51:05;8.50;;;6.03;;
73940;SDS011;62294;48.554;10.202;2022-09-01T09:53:50;9.65;;;6.20;;
73940;SDS011;62294;48.554;10.202;2022-09-01T09:56:17;7.68;;;6.00;;
73940;SDS011;62294;48.554;10.202;2022-09-01T09:58:47;10.10;;;6.43;;
73940;SDS011;62294;48.554;10.202;2022-09-01T10:03:50;9.48;;;6.18;;
73940;SDS011;62294;48.554;10.202;2022-09-01T10:11:42;9.40;;;7.15;;
73940;SDS011;62294;48.554;10.202;2022-09-01T10:14:35;7.20;;;5.70;;
73940;SDS011;62294;48.554;10.202;2022-09-01T10:17:23;9.80;;;6.05;;
73940;SDS011;62294;48.554;10.202;2022-09-01T10:19:56;8.95;;;5.80;;
73940;SDS011;62294;48.554;10.202;2022-09-01T10:22:29;6.45;;;4.72;;
73940;SDS011;62294;48.554;10.202;2022-09-01T10:24:58;7.93;;;5.40;;
73940;SDS011;62294;48.554;10.202;2022-09-01T10:27:32;8.02;;;5.43;;
73940;SDS011;62294;48.554;10.202;2022-09-01T10:30:07;13.07;;;11.68;;
73940;SDS011;62294;48.554;10.202;2022-09-01T10:32:41;6.25;;;4.70;;
73940;SDS011;62294;48.554;10.202;2022-09-01T10:35:21;8.05;;;5.47;;
73940;SDS011;62294;48.554;10.202;2022-09-01T10:37:54;8.85;;;5.60;;
73940;SDS011;62294;48.554;10.202;2022-09-01T10:42:58;7.85;;;4.55;;
73940;SDS011;62294;48.554;10.202;2022-09-01T10:45:47;7.32;;;4.78;;
73940;SDS011;62294;48.554;10.202;2022-09-01T10:48:27;6.70;;;4.53;;
73940;SDS011;62294;48.554;10.202;2022-09-01T10:53:51;5.80;;;4.57;;
73940;SDS011;62294;48.554;10.202;2022-09-01T10:56:24;6.63;;;4.78;;
73940;SDS011;62294;48.554;10.202;2022-09-01T10:59:23;7.78;;;4.70;;
73940;SDS011;62294;48.554;10.202;2022-09-01T11:10:28;6.15;;;4.25;;
73940;SDS011;62294;48.554;10.202;2022-09-01T11:15:49;6.65;;;4.75;;
73940;SDS011;62294;48.554;10.202;2022-09-01T11:18:26;7.35;;;4.80;;
73940;SDS011;62294;48.554;10.202;2022-09-01T11:27:06;5.97;;;4.22;;
73940;SDS011;62294;48.554;10.202;2022-09-01T11:29:50;5.95;;;4.03;;
73940;SDS011;62294;48.554;10.202;2022-09-01T11:32:23;8.35;;;4.53;;
73940;SDS011;62294;48.554;10.202;2022-09-01T11:34:53;6.40;;;3.85;;
73940;SDS011;62294;48.554;10.202;2022-09-01T11:37:22;5.15;;;4.20;;
73940;SDS011;62294;48.554;10.202;2022-09-01T11:39:57;7.50;;;4.45;;
73940;SDS011;62294;48.554;10.202;2022-09-01T11:42:31;8.00;;;4.82;;
73940;SDS011;62294;48.554;10.202;2022-09-01T11:45:13;6.68;;;4.30;;
73940;SDS011;62294;48.554;10.202;2022-09-01T11:47:48;6.32;;;4.60;;
73940;SDS011;62294;48.554;10.202;2022-09-01T11:53:09;7.43;;;4.00;;
73940;SDS011;62294;48.554;10.202;2022-09-01T11:55:40;6.57;;;4.72;;
73940;SDS011;62294;48.554;10.202;2022-09-01T11:58:14;7.70;;;4.82;;
73940;SDS011;62294;48.554;10.202;2022-09-01T12:03:42;7.90;;;4.65;;
73940;SDS011;62294;48.554;10.202;2022-09-01T12:06:11;5.45;;;4.32;;
73940;SDS011;62294;48.554;10.202;2022-09-01T12:08:49;7.93;;;4.95;;
73940;SDS011;62294;48.554;10.202;2022-09-01T12:11:19;5.38;;;3.95;;
73940;SDS011;62294;48.554;10.202;2022-09-01T12:13:54;5.65;;;4.35;;
73940;SDS011;62294;48.554;10.202;2022-09-01T12:18:52;6.13;;;4.25;;
73940;SDS011;62294;48.554;10.202;2022-09-01T12:21:34;6.32;;;3.78;;
73940;SDS011;62294;48.554;10.202;2022-09-01T12:24:14;5.53;;;4.30;;
73940;SDS011;62294;48.554;10.202;2022-09-01T12:26:43;5.68;;;4.15;;
73940;SDS011;62294;48.554;10.202;2022-09-01T12:29:12;8.00;;;4.35;;
73940;SDS011;62294;48.554;10.202;2022-09-01T12:31:40;5.82;;;4.63;;
73940;SDS011;62294;48.554;10.202;2022-09-01T12:37:19;5.68;;;4.20;;
73940;SDS011;62294;48.554;10.202;2022-09-01T12:39:49;6.65;;;4.45;;
73940;SDS011;62294;48.554;10.202;2022-09-01T12:44:49;5.95;;;4.00;;
73940;SDS011;62294;48.554;10.202;2022-09-01T12:52:55;6.30;;;3.72;;
73940;SDS011;62294;48.554;10.202;2022-09-01T12:55:26;5.63;;;4.38;;
73940;SDS011;62294;48.554;10.202;2022-09-01T12:58:19;6.18;;;4.25;;
73940;SDS011;62294;48.554;10.202;2022-09-01T13:03:31;5.20;;;3.90;;
73940;SDS011;62294;48.554;10.202;2022-09-01T13:06:00;5.53;;;4.32;;
73940;SDS011;62294;48.554;10.202;2022-09-01T13:08:29;5.70;;;4.15;;
73940;SDS011;62294;48.554;10.202;2022-09-01T13:11:06;5.55;;;4.35;;
73940;SDS011;62294;48.554;10.202;2022-09-01T13:13:36;5.47;;;4.22;;
73940;SDS011;62294;48.554;10.202;2022-09-01T13:16:03;5.25;;;3.88;;
73940;SDS011;62294;48.554;10.202;2022-09-01T13:18:33;6.75;;;4.28;;
73940;SDS011;62294;48.554;10.202;2022-09-01T13:21:19;6.93;;;4.90;;
73940;SDS011;62294;48.554;10.202;2022-09-01T13:23:47;6.65;;;3.90;;
73940;SDS011;62294;48.554;10.202;2022-09-01T13:26:16;6.55;;;4.32;;
73940;SDS011;62294;48.554;10.202;2022-09-01T13:28:43;4.72;;;3.83;;
73940;SDS011;62294;48.554;10.202;2022-09-01T13:31:10;5.40;;;4.22;;
73940;SDS011;62294;48.554;10.202;2022-09-01T13:33:55;5.50;;;3.90;;
73940;SDS011;62294;48.554;10.202;2022-09-01T13:36:42;4.88;;;3.95;;
73940;SDS011;62294;48.554;10.202;2022-09-01T13:39:16;4.90;;;3.50;;
73940;SDS011;62294;48.554;10.202;2022-09-01T13:41:43;5.68;;;4.03;;
73940;SDS011;62294;48.554;10.202;2022-09-01T13:44:12;5.38;;;3.78;;
73940;SDS011;62294;48.554;10.202;2022-09-01T13:46:39;4.95;;;4.22;;
73940;SDS011;62294;48.554;10.202;2022-09-01T13:49:26;3.97;;;3.28;;
73940;SDS011;62294;48.554;10.202;2022-09-01T13:52:13;5.13;;;3.83;;
73940;SDS011;62294;48.554;10.202;2022-09-01T13:54:40;4.75;;;4.25;;
73940;SDS011;62294;48.554;10.202;2022-09-01T13:57:09;5.22;;;3.80;;
73940;SDS011;62294;48.554;10.202;2022-09-01T13:59:37;4.22;;;3.08;;
73940;SDS011;62294;48.554;10.202;2022-09-01T14:02:04;4.93;;;3.58;;
73940;SDS011;62294;48.554;10.202;2022-09-01T14:04:31;5.68;;;3.65;;
73940;SDS011;62294;48.554;10.202;2022-09-01T14:06:58;4.95;;;3.60;;
73940;SDS011;62294;48.554;10.202;2022-09-01T14:09:24;5.30;;;3.67;;
73940;SDS011;62294;48.554;10.202;2022-09-01T14:11:52;4.45;;;3.40;;
73940;SDS011;62294;48.554;10.202;2022-09-01T14:14:20;5.03;;;3.67;;
73940;SDS011;62294;48.554;10.202;2022-09-01T14:16:46;4.85;;;3.63;;
73940;SDS011;62294;48.554;10.202;2022-09-01T14:19:14;5.03;;;3.25;;
73940;SDS011;62294;48.554;10.202;2022-09-01T14:21:41;4.50;;;3.15;;
73940;SDS011;62294;48.554;10.202;2022-09-01T14:24:07;5.88;;;3.30;;
73940;SDS011;62294;48.554;10.202;2022-09-01T14:26:34;5.00;;;3.40;;
73940;SDS011;62294;48.554;10.202;2022-09-01T14:29:01;4.32;;;3.38;;
73940;SDS011;62294;48.554;10.202;2022-09-01T14:31:28;4.68;;;3.40;;
73940;SDS011;62294;48.554;10.202;2022-09-01T14:33:55;3.80;;;3.08;;
73940;SDS011;62294;48.554;10.202;2022-09-01T14:36:22;5.78;;;3.28;;
73940;SDS011;62294;48.554;10.202;2022-09-01T14:38:51;3.95;;;3.03;;
73940;SDS011;62294;48.554;10.202;2022-09-01T14:41:20;4.43;;;3.15;;
73940;SDS011;62294;48.554;10.202;2022-09-01T14:43:52;4.32;;;3.85;;
73940;SDS011;62294;48.554;10.202;2022-09-01T14:46:23;3.60;;;2.97;;
73940;SDS011;62294;48.554;10.202;2022-09-01T14:48:50;3.95;;;3.55;;
73940;SDS011;62294;48.554;10.202;2022-09-01T14:51:18;6.38;;;3.17;;
73940;SDS011;62294;48.554;10.202;2022-09-01T14:53:50;3.97;;;3.50;;
73940;SDS011;62294;48.554;10.202;2022-09-01T14:56:18;4.25;;;3.40;;
73940;SDS011;62294;48.554;10.202;2022-09-01T14:58:47;5.03;;;3.40;;
73940;SDS011;62294;48.554;10.202;2022-09-01T15:01:15;4.65;;;3.47;;
73940;SDS011;62294;48.554;10.202;2022-09-01T15:03:59;4.45;;;3.10;;
73940;SDS011;62294;48.554;10.202;2022-09-01T15:06:26;4.43;;;3.63;;
73940;SDS011;62294;48.554;10.202;2022-09-01T15:08:52;4.13;;;3.20;;
73940;SDS011;62294;48.554;10.202;2022-09-01T15:11:19;4.90;;;3.13;;
73940;SDS011;62294;48.554;10.202;2022-09-01T15:13:46;4.03;;;2.88;;
73940;SDS011;62294;48.554;10.202;2022-09-01T15:16:14;7.40;;;3.10;;
73940;SDS011;62294;48.554;10.202;2022-09-01T15:18:43;4.30;;;3.25;;
73940;SDS011;62294;48.554;10.202;2022-09-01T15:23:45;3.85;;;3.00;;
73940;SDS011;62294;48.554;10.202;2022-09-01T15:26:13;11.43;;;3.88;;
73940;SDS011;62294;48.554;10.202;2022-09-01T15:28:46;5.03;;;2.70;;
73940;SDS011;62294;48.554;10.202;2022-09-01T15:31:14;5.60;;;3.63;;
73940;SDS011;62294;48.554;10.202;2022-09-01T15:33:58;4.35;;;3.10;;
73940;SDS011;62294;48.554;10.202;2022-09-01T15:36:26;4.45;;;3.05;;
73940;SDS011;62294;48.554;10.202;2022-09-01T15:38:55;4.00;;;2.85;;
73940;SDS011;62294;48.554;10.202;2022-09-01T15:41:24;3.25;;;2.75;;
73940;SDS011;62294;48.554;10.202;2022-09-01T15:43:53;3.38;;;2.70;;
73940;SDS011;62294;48.554;10.202;2022-09-01T15:46:20;4.45;;;3.47;;
73940;SDS011;62294;48.554;10.202;2022-09-01T15:48:47;3.15;;;2.67;;
73940;SDS011;62294;48.554;10.202;2022-09-01T15:53:48;3.40;;;3.10;;
73940;SDS011;62294;48.554;10.202;2022-09-01T15:56:16;3.90;;;2.97;;
73940;SDS011;62294;48.554;10.202;2022-09-01T15:58:43;4.00;;;3.13;;
73940;SDS011;62294;48.554;10.202;2022-09-01T16:01:27;4.45;;;2.85;;
73940;SDS011;62294;48.554;10.202;2022-09-01T16:03:55;3.30;;;2.78;;
73940;SDS011;62294;48.554;10.202;2022-09-01T16:06:23;3.53;;;2.83;;
73940;SDS011;62294;48.554;10.202;2022-09-01T16:08:51;3.53;;;2.88;;
73940;SDS011;62294;48.554;10.202;2022-09-01T16:11:20;5.03;;;3.50;;
73940;SDS011;62294;48.554;10.202;2022-09-01T16:13:49;4.10;;;3.03;;
73940;SDS011;62294;48.554;10.202;2022-09-01T16:19:26;4.20;;;2.75;;
73940;SDS011;62294;48.554;10.202;2022-09-01T16:24:50;3.20;;;2.70;;
73940;SDS011;62294;48.554;10.202;2022-09-01T16:27:20;3.50;;;2.65;;